Terminal Aerodrome Forecast
Issued by NWS Sioux Falls, SD

Home | Current Version | Previous Version | Graphics & Text | Print | Product List | Glossary On
Versions: 1 2 3 4 5 6 7 8 9 10 11 12 13 14 15 16 17 18 19
000
FTUS43 KFSD 181720
TAFFSD
TAF
KFSD 181720Z 1818/1918 12009KT P6SM -SHRA OVC060
     FM181900 15015KT 5SM -RA VCTS SCT025CB OVC060
      TEMPO 1819/1822 2SM RA BR BKN025
     FM190000 15004KT P6SM OVC015
     FM190700 22009KT 6SM BR VCSH OVC015
     FM191200 33017G25KT P6SM OVC050=

USA.gov is the U.S. government's official web portal to all federal, state and local government web resources and services.